Time;durP1;ratioP1;P1;durP2;ratioP2;P2;SDS_P1;SDS_P2;PMS_P1;PMS_P2;Temp;Humidity;BMP_temperature;BMP_pressure;BME280_temperature;BME280_humidity;BME280_pressure;Samples;Min_cycle;Max_cycle;Signal;HPM_P1;HPM_P2
2023/04/17 00:01:50;;;;;;;8.00;7.00;;;11.90;92.00;;;;;;5012009;28;20553;-75
2023/04/17 00:04:20;;;;;;;6.47;5.77;;;11.90;92.00;;;;;;5025141;28;20452;-73
2023/04/17 00:06:52;;;;;;;8.00;6.67;;;11.90;92.00;;;;;;5021326;28;20514;-73
2023/04/17 00:09:21;;;;;;;6.70;5.93;;;11.90;92.00;;;;;;5016895;28;20478;-73
2023/04/17 00:11:49;;;;;;;6.33;5.73;;;11.90;92.10;;;;;;5014340;28;21081;-73
2023/04/17 00:14:17;;;;;;;6.40;5.57;;;11.90;92.00;;;;;;5005265;28;20431;-73
2023/04/17 00:16:47;;;;;;;7.57;6.77;;;11.90;92.00;;;;;;5023274;28;20813;-73
2023/04/17 00:19:16;;;;;;;7.93;7.07;;;11.90;92.00;;;;;;5006527;28;20959;-74
2023/04/17 00:21:44;;;;;;;5.80;5.30;;;11.90;92.00;;;;;;5007674;28;20468;-74
2023/04/17 00:24:13;;;;;;;6.00;5.40;;;11.90;92.00;;;;;;5007611;28;20428;-73
2023/04/17 00:26:41;;;;;;;6.57;6.07;;;11.90;92.00;;;;;;5022820;28;20483;-73
2023/04/17 00:29:09;;;;;;;7.77;6.60;;;11.90;92.00;;;;;;4996285;28;20499;-73
2023/04/17 00:31:38;;;;;;;6.73;5.60;;;11.90;92.00;;;;;;5023186;28;20473;-73
2023/04/17 00:34:08;;;;;;;6.77;5.83;;;11.90;92.00;;;;;;5008508;28;21110;-73
2023/04/17 00:36:37;;;;;;;6.27;5.63;;;11.90;91.90;;;;;;5018592;28;21021;-73
2023/04/17 00:39:05;;;;;;;6.20;5.57;;;11.90;91.90;;;;;;5024400;28;20493;-72
2023/04/17 00:41:33;;;;;;;6.60;5.63;;;11.90;92.00;;;;;;5006178;28;21009;-73
2023/04/17 00:44:02;;;;;;;7.90;7.10;;;11.90;92.00;;;;;;5008459;28;20439;-73
2023/04/17 00:46:31;;;;;;;7.80;6.17;;;11.90;92.00;;;;;;5023028;28;20459;-73
2023/04/17 00:49:00;;;;;;;6.20;5.57;;;11.90;91.90;;;;;;5017255;28;21030;-73
2023/04/17 00:51:31;;;;;;;7.03;6.33;;;11.90;91.90;;;;;;5021939;28;20982;-73
2023/04/17 00:54:00;;;;;;;7.43;6.73;;;11.90;92.00;;;;;;5022690;28;20974;-73
2023/04/17 00:56:30;;;;;;;7.93;6.17;;;11.90;91.90;;;;;;5022115;28;20467;-74
2023/04/17 00:59:01;;;;;;;7.00;5.87;;;11.90;91.90;;;;;;5012728;28;21004;-73
2023/04/17 01:01:30;;;;;;;6.63;6.03;;;11.90;91.90;;;;;;5022477;28;20471;-73
2023/04/17 01:04:00;;;;;;;7.83;6.07;;;11.90;92.00;;;;;;5022097;28;20437;-73
2023/04/17 01:06:31;;;;;;;6.33;5.73;;;11.90;91.90;;;;;;5012892;28;20892;-73
2023/04/17 01:08:59;;;;;;;6.83;6.13;;;11.90;92.00;;;;;;5007306;28;20882;-72
2023/04/17 01:11:28;;;;;;;6.77;5.60;;;11.90;92.00;;;;;;5020487;28;20571;-73
2023/04/17 01:13:56;;;;;;;6.50;5.67;;;11.90;92.00;;;;;;5022827;28;20443;-73
2023/04/17 01:16:25;;;;;;;6.70;5.60;;;11.90;92.00;;;;;;5022012;28;20477;-73
2023/04/17 01:18:53;;;;;;;6.60;5.53;;;11.90;92.00;;;;;;5020900;28;21055;-73
2023/04/17 01:21:22;;;;;;;6.80;6.10;;;11.90;92.00;;;;;;5021574;28;20464;-74
2023/04/17 01:23:52;;;;;;;6.80;6.10;;;11.90;91.90;;;;;;5022782;28;20952;-74
2023/04/17 01:26:27;;;;;;;8.10;6.00;;;11.90;92.00;;;;;;5017830;28;20513;-73
2023/04/17 01:28:58;;;;;;;8.70;5.80;;;11.90;92.00;;;;;;5022562;28;20464;-73
2023/04/17 01:31:28;;;;;;;7.23;6.20;;;11.80;91.90;;;;;;5021358;28;20471;-73
2023/04/17 01:33:56;;;;;;;7.33;6.43;;;11.80;92.00;;;;;;5016847;28;20468;-72
2023/04/17 01:36:26;;;;;;;9.83;6.23;;;11.90;92.00;;;;;;5021640;28;20460;-74
2023/04/17 01:38:54;;;;;;;6.83;5.90;;;11.90;92.00;;;;;;5023119;28;20428;-73
2023/04/17 01:41:24;;;;;;;6.03;5.43;;;11.80;92.00;;;;;;5005065;28;20490;-73
2023/04/17 01:43:54;;;;;;;6.03;5.47;;;11.80;92.00;;;;;;4999104;28;20428;-73
2023/04/17 01:46:22;;;;;;;6.27;5.63;;;11.80;92.00;;;;;;5021450;28;20479;-72
2023/04/17 01:48:51;;;;;;;6.80;6.10;;;11.80;92.00;;;;;;5004745;28;20482;-73
2023/04/17 01:51:20;;;;;;;7.53;5.63;;;11.80;91.90;;;;;;5021100;28;20482;-73
2023/04/17 01:53:49;;;;;;;7.33;6.20;;;11.80;91.90;;;;;;4998264;28;21169;-73
2023/04/17 01:56:17;;;;;;;6.60;6.00;;;11.80;92.00;;;;;;4997128;28;20484;-73
2023/04/17 01:58:46;;;;;;;7.27;6.40;;;11.80;92.00;;;;;;5005701;28;20433;-74
2023/04/17 02:01:16;;;;;;;7.80;7.00;;;11.80;91.90;;;;;;5021826;28;20492;-74
2023/04/17 02:03:44;;;;;;;6.87;6.17;;;11.80;92.00;;;;;;5021607;28;20956;-74
2023/04/17 02:06:13;;;;;;;6.80;5.90;;;11.80;92.00;;;;;;5002383;28;20546;-73
2023/04/17 02:08:44;;;;;;;7.23;6.40;;;11.80;92.00;;;;;;5017376;28;20468;-73
2023/04/17 02:11:14;;;;;;;6.73;6.13;;;11.80;92.00;;;;;;5007245;28;20500;-74
2023/04/17 02:13:42;;;;;;;9.20;6.10;;;11.80;92.00;;;;;;5008896;28;20447;-73
2023/04/17 02:16:11;;;;;;;7.17;6.00;;;11.80;92.00;;;;;;5025002;28;21017;-74
2023/04/17 02:18:43;;;;;;;6.37;5.77;;;11.80;91.90;;;;;;5018226;28;20454;-73
2023/04/17 02:21:12;;;;;;;6.80;6.10;;;11.80;92.00;;;;;;5008411;28;20505;-73
2023/04/17 02:23:40;;;;;;;6.73;6.00;;;11.80;91.90;;;;;;5024456;28;20975;-73
2023/04/17 02:26:11;;;;;;;6.83;6.13;;;11.80;92.00;;;;;;4999702;28;20459;-72
2023/04/17 02:28:40;;;;;;;8.00;6.13;;;11.80;91.90;;;;;;5022569;28;20509;-73
2023/04/17 02:31:09;;;;;;;6.43;5.83;;;11.80;92.00;;;;;;5007371;28;20475;-73
2023/04/17 02:33:38;;;;;;;6.53;5.83;;;11.80;92.00;;;;;;5023192;28;20531;-73
2023/04/17 02:36:09;;;;;;;6.40;5.60;;;11.80;92.00;;;;;;5023676;28;20547;-73
2023/04/17 02:38:41;;;;;;;7.00;6.10;;;11.80;92.00;;;;;;5023771;28;20454;-73
2023/04/17 02:41:09;;;;;;;7.43;6.50;;;11.80;92.00;;;;;;5007741;28;20507;-73
2023/04/17 02:43:39;;;;;;;6.67;5.37;;;11.80;92.00;;;;;;5024475;28;20440;-73
2023/04/17 02:46:10;;;;;;;7.13;6.00;;;11.80;92.00;;;;;;5023726;28;20461;-72
2023/04/17 02:48:38;;;;;;;7.63;6.30;;;11.80;92.50;;;;;;5022959;28;20900;-73
2023/04/17 02:51:08;;;;;;;7.13;6.17;;;11.80;92.00;;;;;;5020582;28;20823;-73
2023/04/17 02:53:37;;;;;;;7.30;6.47;;;11.80;92.00;;;;;;5024058;28;20937;-73
2023/04/17 02:56:06;;;;;;;6.70;6.07;;;11.80;92.00;;;;;;5023231;28;20566;-73
2023/04/17 02:58:35;;;;;;;7.87;6.87;;;11.80;92.00;;;;;;5020799;28;20450;-73
2023/04/17 03:01:06;;;;;;;7.83;6.60;;;11.80;92.10;;;;;;5023057;28;20506;-73
2023/04/17 03:03:41;;;;;;;7.33;6.40;;;11.80;92.10;;;;;;5019261;28;20447;-73
2023/04/17 03:06:14;;;;;;;8.10;6.67;;;11.80;92.10;;;;;;5018350;28;20463;-73
2023/04/17 03:08:43;;;;;;;7.50;6.73;;;11.80;92.10;;;;;;5006008;28;20807;-72
2023/04/17 03:11:11;;;;;;;7.80;6.83;;;11.80;92.10;;;;;;5014049;28;21157;-73
2023/04/17 03:13:40;;;;;;;6.80;6.10;;;11.80;92.10;;;;;;5002461;28;20644;-73
2023/04/17 03:16:08;;;;;;;8.73;7.77;;;11.80;92.10;;;;;;5000037;28;20494;-73
2023/04/17 03:18:40;;;;;;;7.50;6.70;;;11.80;92.10;;;;;;5023705;28;20455;-73
2023/04/17 03:21:09;;;;;;;8.40;6.37;;;11.80;92.10;;;;;;5017950;28;20477;-73
2023/04/17 03:23:40;;;;;;;7.60;6.73;;;11.80;92.10;;;;;;5007836;28;20542;-73
2023/04/17 03:26:09;;;;;;;6.20;5.60;;;11.70;92.10;;;;;;5025049;28;20463;-73
2023/04/17 03:28:38;;;;;;;7.40;5.87;;;11.70;92.10;;;;;;5024772;28;20462;-73
2023/04/17 03:31:06;;;;;;;8.00;7.20;;;11.70;92.10;;;;;;5008393;28;20474;-73
2023/04/17 03:33:36;;;;;;;7.30;6.40;;;11.80;92.10;;;;;;5022996;28;20899;-73
2023/04/17 03:36:06;;;;;;;9.70;7.60;;;11.70;92.10;;;;;;5016854;28;20470;-73
2023/04/17 03:38:36;;;;;;;7.90;6.73;;;11.70;92.10;;;;;;5017187;28;20468;-73
2023/04/17 03:41:09;;;;;;;8.93;7.60;;;11.70;92.10;;;;;;5018210;28;20884;-73
2023/04/17 03:43:38;;;;;;;8.13;7.30;;;11.80;92.20;;;;;;5010828;28;20822;-73
2023/04/17 03:46:09;;;;;;;8.07;7.20;;;11.70;92.20;;;;;;5008716;28;20477;-73
2023/04/17 03:48:38;;;;;;;7.57;6.30;;;11.80;92.20;;;;;;5007867;28;20445;-73
2023/04/17 03:51:07;;;;;;;7.77;6.97;;;11.70;92.10;;;;;;5016091;28;20463;-73
2023/04/17 03:53:37;;;;;;;7.23;6.53;;;11.80;92.20;;;;;;5008650;28;20460;-73
2023/04/17 03:56:10;;;;;;;11.00;8.30;;;11.70;92.10;;;;;;5023079;28;20485;-72
2023/04/17 03:58:42;;;;;;;8.83;6.90;;;11.70;92.10;;;;;;5009078;28;21140;-73
2023/04/17 04:01:13;;;;;;;8.97;8.03;;;11.80;92.20;;;;;;5009094;28;20474;-73
2023/04/17 04:03:59;;;;;;;10.33;7.70;;;11.70;92.10;;;;;;5007504;28;20932;-73
2023/04/17 04:06:28;;;;;;;9.33;7.80;;;11.70;92.20;;;;;;5024326;28;20474;-73
2023/04/17 04:08:58;;;;;;;8.77;7.10;;;11.70;92.10;;;;;;5008131;28;20477;-73
2023/04/17 04:11:27;;;;;;;8.00;7.20;;;11.70;92.10;;;;;;5023340;28;21000;-72
2023/04/17 04:13:56;;;;;;;10.03;7.67;;;11.70;92.10;;;;;;5002843;28;20952;-74
2023/04/17 04:16:24;;;;;;;8.67;7.53;;;11.70;92.10;;;;;;5007166;28;20514;-72
2023/04/17 04:19:00;;;;;;;8.13;7.33;;;11.70;92.10;;;;;;5007351;28;20443;-73
2023/04/17 04:21:29;;;;;;;6.90;6.20;;;11.70;92.10;;;;;;5023963;28;20475;-72
2023/04/17 04:23:58;;;;;;;7.20;5.90;;;11.70;92.10;;;;;;5025710;28;20494;-73
2023/04/17 04:26:28;;;;;;;10.10;8.10;;;11.70;92.10;;;;;;5024339;28;20463;-73
2023/04/17 04:28:59;;;;;;;8.00;6.83;;;11.70;92.10;;;;;;5020515;28;20830;-73
2023/04/17 04:31:34;;;;;;;8.83;7.20;;;11.70;92.10;;;;;;5023607;28;20983;-74
2023/04/17 04:34:04;;;;;;;7.63;6.83;;;11.70;92.10;;;;;;5023510;28;20497;-73
2023/04/17 04:36:34;;;;;;;9.57;7.63;;;11.70;92.10;;;;;;5007102;28;20490;-73
2023/04/17 04:39:20;;;;;;;10.77;7.07;;;11.70;92.10;;;;;;5000267;28;20669;-72
2023/04/17 04:41:51;;;;;;;7.40;6.63;;;11.70;92.00;;;;;;5022582;28;21063;-73
2023/04/17 04:44:23;;;;;;;7.13;6.53;;;11.70;92.50;;;;;;5015428;28;20982;-73
2023/04/17 04:46:56;;;;;;;8.50;7.37;;;11.70;92.00;;;;;;5018336;28;20465;-73
2023/04/17 04:49:25;;;;;;;7.80;7.00;;;11.70;92.00;;;;;;5023371;28;20447;-72
2023/04/17 04:51:54;;;;;;;9.17;8.23;;;11.70;92.00;;;;;;5023005;28;20469;-73
2023/04/17 04:54:29;;;;;;;8.67;7.07;;;11.70;92.00;;;;;;5008158;28;20437;-73
2023/04/17 04:57:02;;;;;;;7.97;7.17;;;11.70;92.00;;;;;;5022604;28;20981;-73
2023/04/17 04:59:30;;;;;;;8.23;7.30;;;11.70;91.90;;;;;;5024133;28;20840;-72
2023/04/17 05:02:17;;;;;;;10.87;7.03;;;11.70;92.00;;;;;;5002641;28;20829;-73
2023/04/17 05:04:45;;;;;;;7.63;6.73;;;11.70;92.00;;;;;;5015490;28;20436;-73
2023/04/17 05:07:14;;;;;;;9.53;7.20;;;11.70;92.00;;;;;;5024178;28;20439;-73
2023/04/17 05:09:45;;;;;;;7.90;6.83;;;11.70;92.00;;;;;;5023533;28;20477;-73
2023/04/17 05:12:17;;;;;;;7.90;7.00;;;11.70;92.00;;;;;;5020653;28;20443;-73
2023/04/17 05:14:46;;;;;;;7.23;6.43;;;11.70;92.00;;;;;;5022972;28;20539;-73
2023/04/17 05:17:16;;;;;;;10.03;7.27;;;11.70;91.90;;;;;;5022999;28;20499;-72
2023/04/17 05:19:45;;;;;;;8.83;7.57;;;11.70;91.90;;;;;;5006616;28;20547;-72
2023/04/17 05:22:14;;;;;;;8.80;7.47;;;11.70;92.00;;;;;;5023101;28;20519;-73
2023/04/17 05:24:58;;;;;;;10.77;8.33;;;11.70;91.90;;;;;;5023894;28;20447;-72
2023/04/17 05:27:28;;;;;;;8.50;6.87;;;11.70;92.00;;;;;;5006582;28;20891;-73
2023/04/17 05:29:57;;;;;;;8.60;6.50;;;11.70;91.90;;;;;;5022784;28;20840;-73
2023/04/17 05:32:26;;;;;;;8.80;7.40;;;11.70;91.90;;;;;;5021879;28;20812;-72
2023/04/17 05:34:59;;;;;;;8.83;7.70;;;11.70;92.00;;;;;;5007200;28;21367;-74
2023/04/17 05:37:28;;;;;;;8.30;6.30;;;11.70;91.90;;;;;;5006991;28;20537;-73
2023/04/17 05:39:59;;;;;;;8.73;7.83;;;11.70;91.90;;;;;;5005775;28;20468;-73
2023/04/17 05:42:30;;;;;;;7.83;7.03;;;11.60;91.90;;;;;;5015805;28;20648;-73
2023/04/17 05:44:59;;;;;;;8.43;7.63;;;11.70;91.90;;;;;;5023744;28;20503;-72
2023/04/17 05:47:27;;;;;;;7.97;7.17;;;11.70;91.90;;;;;;5021727;28;20435;-74
2023/04/17 05:49:57;;;;;;;7.47;6.53;;;11.60;91.90;;;;;;5021634;28;20468;-74
2023/04/17 05:52:29;;;;;;;8.00;7.20;;;11.70;91.90;;;;;;5022329;28;20530;-73
2023/04/17 05:54:58;;;;;;;8.57;7.13;;;11.70;91.90;;;;;;5007563;28;20460;-66
2023/04/17 05:57:30;;;;;;;9.10;7.13;;;11.70;91.90;;;;;;5015358;28;20487;-65
2023/04/17 06:00:00;;;;;;;8.33;7.30;;;11.70;91.90;;;;;;5022144;28;20455;-67
2023/04/17 06:02:29;;;;;;;9.90;7.50;;;11.70;91.90;;;;;;5002763;28;20478;-67
2023/04/17 06:04:58;;;;;;;8.20;7.00;;;11.60;91.90;;;;;;5021687;28;20493;-67
2023/04/17 06:07:27;;;;;;;7.77;6.90;;;11.60;91.90;;;;;;5022386;28;20487;-65
2023/04/17 06:09:56;;;;;;;9.40;8.37;;;11.60;91.90;;;;;;5021709;28;20466;-66
2023/04/17 06:12:25;;;;;;;8.37;7.40;;;11.60;91.90;;;;;;5000275;28;20479;-66
2023/04/17 06:14:56;;;;;;;8.00;6.60;;;11.60;91.90;;;;;;5001964;28;20848;-66
2023/04/17 06:17:24;;;;;;;8.30;7.40;;;11.60;91.90;;;;;;5004482;28;20979;-67
2023/04/17 06:19:55;;;;;;;10.33;8.50;;;11.60;92.00;;;;;;5005490;28;20867;-65
2023/04/17 06:22:23;;;;;;;10.80;8.57;;;11.60;91.90;;;;;;5021471;28;20479;-66
2023/04/17 06:24:55;;;;;;;9.57;7.60;;;11.60;92.00;;;;;;5021691;28;21036;-66
2023/04/17 06:27:23;;;;;;;12.10;8.97;;;11.60;91.90;;;;;;5004384;28;20534;-66
2023/04/17 06:29:52;;;;;;;9.67;8.67;;;11.60;92.00;;;;;;5005011;28;20982;-66
2023/04/17 06:32:22;;;;;;;11.30;8.67;;;11.60;92.00;;;;;;5020532;28;20463;-65
2023/04/17 06:34:51;;;;;;;11.23;10.03;;;11.60;92.00;;;;;;4998658;28;20424;-66
2023/04/17 06:37:40;;;;;;;9.30;7.40;;;11.60;92.00;;;;;;5019699;28;20455;-66
2023/04/17 06:40:11;;;;;;;8.83;7.73;;;11.60;92.00;;;;;;5021098;28;20478;-66
2023/04/17 06:42:40;;;;;;;9.63;8.00;;;11.60;92.50;;;;;;5003581;28;20475;-66
2023/04/17 06:45:13;;;;;;;10.50;8.67;;;11.60;92.00;;;;;;4998801;28;21153;-65
2023/04/17 06:47:45;;;;;;;10.47;8.37;;;11.60;92.00;;;;;;5005906;28;20444;-67
2023/04/17 06:50:17;;;;;;;10.00;8.63;;;11.60;92.50;;;;;;5004585;28;21021;-66
2023/04/17 06:52:46;;;;;;;9.97;8.90;;;11.60;92.10;;;;;;5022652;28;20522;-66
2023/04/17 06:55:14;;;;;;;9.87;8.00;;;11.60;92.00;;;;;;5025109;28;20471;-66
2023/04/17 06:57:43;;;;;;;9.67;8.23;;;11.60;92.10;;;;;;5018634;28;20451;-65
2023/04/17 07:00:12;;;;;;;10.30;8.47;;;11.60;92.00;;;;;;5008523;28;21016;-66
2023/04/17 07:02:41;;;;;;;10.30;9.23;;;11.60;92.10;;;;;;5022319;28;20484;-65
2023/04/17 07:05:12;;;;;;;12.20;9.70;;;11.60;92.00;;;;;;5003887;28;21074;-66
2023/04/17 07:07:40;;;;;;;10.77;8.80;;;11.60;92.00;;;;;;5008762;28;20444;-66
2023/04/17 07:10:09;;;;;;;9.60;8.60;;;11.60;92.00;;;;;;5015803;28;20891;-67
2023/04/17 07:12:37;;;;;;;10.77;9.10;;;11.60;92.00;;;;;;5008790;28;20607;-66
2023/04/17 07:15:07;;;;;;;10.73;9.50;;;11.60;92.00;;;;;;5013841;28;20571;-66
2023/04/17 07:17:35;;;;;;;10.83;9.07;;;11.60;92.00;;;;;;5021793;28;20588;-67
2023/04/17 07:20:06;;;;;;;13.37;9.23;;;11.60;92.10;;;;;;5007614;28;20476;-66
2023/04/17 07:22:35;;;;;;;12.37;9.73;;;11.60;92.10;;;;;;5021694;28;20891;-65
2023/04/17 07:25:05;;;;;;;10.63;9.60;;;11.60;92.10;;;;;;5005689;28;20455;-66
2023/04/17 07:27:33;;;;;;;11.40;8.80;;;11.60;92.10;;;;;;5006231;28;20525;-67
2023/04/17 07:30:02;;;;;;;10.03;9.00;;;11.60;92.10;;;;;;5021525;28;20962;-67
2023/04/17 07:32:30;;;;;;;10.90;9.27;;;11.60;92.10;;;;;;5018428;28;20988;-67
2023/04/17 07:34:58;;;;;;;10.17;9.17;;;11.60;92.10;;;;;;5008865;28;21446;-66
2023/04/17 07:37:27;;;;;;;11.47;9.20;;;11.60;92.10;;;;;;5024501;28;20447;-65
2023/04/17 07:39:57;;;;;;;10.50;8.87;;;11.60;92.00;;;;;;5023152;28;20555;-66
2023/04/17 07:42:25;;;;;;;9.60;8.60;;;11.60;92.00;;;;;;5023172;28;20444;-66
2023/04/17 07:44:53;;;;;;;11.40;9.10;;;11.60;92.00;;;;;;5019769;28;20555;-66
2023/04/17 07:47:22;;;;;;;11.93;9.30;;;11.60;92.00;;;;;;5020149;28;20442;-67
2023/04/17 07:49:51;;;;;;;10.40;9.23;;;11.60;92.00;;;;;;5017702;28;20473;-67
2023/04/17 07:52:19;;;;;;;13.37;10.00;;;11.60;92.00;;;;;;5024495;28;20467;-67
2023/04/17 07:54:48;;;;;;;12.68;11.00;;;11.60;92.00;;;;;;4998084;28;20443;-66
2023/04/17 07:57:18;;;;;;;14.63;12.00;;;11.60;92.50;;;;;;5022895;28;20192;-65
2023/04/17 07:59:46;;;;;;;11.07;9.97;;;11.60;92.50;;;;;;5023236;28;20556;-67
2023/04/17 08:02:15;;;;;;;14.30;10.50;;;11.60;92.40;;;;;;5008423;28;20432;-68
2023/04/17 08:04:44;;;;;;;16.10;14.20;;;11.60;92.40;;;;;;4994352;28;20551;-73
2023/04/17 08:07:13;;;;;;;20.00;13.50;;;11.60;92.60;;;;;;5005884;28;20842;-73
2023/04/17 08:09:41;;;;;;;14.10;11.83;;;11.60;92.50;;;;;;5003628;28;20844;-72
2023/04/17 08:12:11;;;;;;;13.20;11.50;;;11.60;92.60;;;;;;5007028;28;20475;-73
2023/04/17 08:14:42;;;;;;;11.33;9.60;;;11.60;92.40;;;;;;5024328;28;20538;-73
2023/04/17 08:17:11;;;;;;;10.87;9.63;;;11.60;92.40;;;;;;5008622;28;20474;-73
2023/04/17 08:19:39;;;;;;;11.70;10.03;;;11.60;92.30;;;;;;5006376;28;20472;-73
2023/04/17 08:22:08;;;;;;;18.13;13.70;;;11.60;92.30;;;;;;4997903;28;20502;-73
2023/04/17 08:24:36;;;;;;;12.07;10.60;;;11.50;92.60;;;;;;5021292;28;20467;-73
2023/04/17 08:27:06;;;;;;;24.97;17.30;;;11.50;92.30;;;;;;5019914;28;20844;-72
2023/04/17 08:29:35;;;;;;;12.97;10.63;;;11.60;92.80;;;;;;5023766;28;20477;-73
2023/04/17 08:32:05;;;;;;;13.83;11.20;;;11.60;92.50;;;;;;5007417;28;20475;-72
2023/04/17 08:34:44;;;;;;;12.07;10.77;;;11.50;92.30;;;;;;5023171;28;20450;-73
2023/04/17 08:37:12;;;;;;;11.53;9.00;;;11.60;92.40;;;;;;5008478;28;20539;-73
2023/04/17 08:39:41;;;;;;;10.07;9.17;;;11.50;92.20;;;;;;5016623;28;20897;-73
2023/04/17 08:42:10;;;;;;;13.20;10.10;;;11.50;92.20;;;;;;4998092;28;20440;-73
2023/04/17 08:44:45;;;;;;;13.13;10.00;;;11.50;92.30;;;;;;5023618;28;20448;-73
2023/04/17 08:47:18;;;;;;;10.10;9.10;;;11.60;92.20;;;;;;5004381;28;20467;-73
2023/04/17 08:49:49;;;;;;;10.30;8.67;;;11.50;92.10;;;;;;4998025;28;20471;-73
2023/04/17 08:52:17;;;;;;;13.10;11.50;;;11.50;92.10;;;;;;5006353;28;20475;-73
2023/04/17 08:54:46;;;;;;;11.53;9.33;;;11.60;92.20;;;;;;5022350;28;20880;-73
2023/04/17 08:57:18;;;;;;;11.80;9.53;;;11.50;92.10;;;;;;5021312;28;20538;-73
2023/04/17 08:59:46;;;;;;;9.70;8.70;;;11.60;92.10;;;;;;5000093;28;20542;-72
2023/04/17 09:02:16;;;;;;;10.17;8.70;;;11.50;92.10;;;;;;5019645;28;20455;-72
2023/04/17 09:04:45;;;;;;;12.33;10.40;;;11.50;92.10;;;;;;5005972;28;20447;-72
2023/04/17 09:07:15;;;;;;;12.13;10.33;;;11.50;92.20;;;;;;5007788;28;20509;-72
2023/04/17 09:09:48;;;;;;;10.20;9.23;;;11.50;92.10;;;;;;5017952;28;20468;-73
2023/04/17 09:12:17;;;;;;;9.60;8.43;;;11.60;92.10;;;;;;5002264;28;20438;-73
2023/04/17 09:14:46;;;;;;;9.90;8.90;;;11.60;92.10;;;;;;5016480;28;20432;-72
2023/04/17 09:17:17;;;;;;;9.20;8.20;;;11.50;92.10;;;;;;5016525;28;20439;-73
2023/04/17 09:20:07;;;;;;;11.40;9.60;;;11.60;92.10;;;;;;4997457;28;20481;-73
2023/04/17 09:22:38;;;;;;;10.60;9.50;;;11.50;92.00;;;;;;5004521;28;20442;-74
2023/04/17 09:25:16;;;;;;;12.17;10.63;;;11.50;92.00;;;;;;5005096;28;20449;-73
2023/04/17 09:27:45;;;;;;;10.70;9.60;;;11.50;92.60;;;;;;5023405;28;20436;-73
2023/04/17 09:30:14;;;;;;;11.10;9.67;;;11.50;92.10;;;;;;5023377;28;20479;-74
2023/04/17 09:32:44;;;;;;;11.50;9.63;;;11.50;92.10;;;;;;5006011;28;20475;-73
2023/04/17 09:35:24;;;;;;;9.80;8.80;;;11.50;92.10;;;;;;5006974;28;20505;-73
2023/04/17 09:37:53;;;;;;;14.27;11.57;;;11.50;92.10;;;;;;5015642;28;20506;-72
2023/04/17 09:40:23;;;;;;;11.33;9.30;;;11.50;92.50;;;;;;5019956;28;20582;-73
2023/04/17 09:42:57;;;;;;;12.80;11.37;;;11.50;92.50;;;;;;5022465;28;20829;-73
2023/04/17 09:45:31;;;;;;;11.10;9.90;;;11.50;93.20;;;;;;5022639;28;20464;-73
2023/04/17 09:48:02;;;;;;;11.67;9.40;;;11.50;92.30;;;;;;5008437;28;20457;-73
2023/04/17 09:50:32;;;;;;;9.80;8.60;;;11.60;92.30;;;;;;5005076;28;20570;-72
2023/04/17 09:53:04;;;;;;;9.27;8.37;;;11.50;92.20;;;;;;5005861;28;20717;-71
2023/04/17 09:55:35;;;;;;;13.40;11.17;;;11.50;92.30;;;;;;5005175;28;20555;-73
2023/04/17 09:58:05;;;;;;;12.27;10.67;;;11.50;92.70;;;;;;5016236;28;20455;-73
2023/04/17 10:00:35;;;;;;;10.63;9.10;;;11.50;92.60;;;;;;5022448;28;20471;-72
2023/04/17 10:03:06;;;;;;;9.90;9.00;;;11.60;92.50;;;;;;5000516;28;20443;-73
2023/04/17 10:05:36;;;;;;;12.67;9.27;;;11.50;92.40;;;;;;5020563;28;20469;-74
2023/04/17 10:08:05;;;;;;;11.60;10.40;;;11.50;92.30;;;;;;5006335;28;20898;-73
2023/04/17 10:10:35;;;;;;;10.57;9.40;;;11.60;92.40;;;;;;5005171;28;20823;-73
2023/04/17 10:13:08;;;;;;;9.97;8.97;;;11.60;92.50;;;;;;5002488;28;20499;-73
2023/04/17 10:15:38;;;;;;;10.93;9.70;;;11.60;92.60;;;;;;5002408;28;20511;-73
2023/04/17 10:18:22;;;;;;;10.40;9.30;;;11.50;92.40;;;;;;5006638;28;21018;-73
2023/04/17 10:20:54;;;;;;;10.70;8.93;;;11.60;92.40;;;;;;5005530;28;20468;-72
2023/04/17 10:23:32;;;;;;;9.50;8.50;;;11.60;92.30;;;;;;4980454;28;20539;-73
2023/04/17 10:26:34;;;;;;;8.73;7.83;;;11.50;92.30;;;;;;5018124;28;20482;-73
2023/04/17 10:29:02;;;;;;;10.53;9.43;;;11.60;92.30;;;;;;5008584;28;20455;-73
2023/04/17 10:32:09;;;;;;;9.40;8.00;;;11.60;92.30;;;;;;5022069;28;20582;-73
2023/04/17 10:34:39;;;;;;;13.23;9.37;;;11.60;92.30;;;;;;5012062;28;20488;-73
2023/04/17 10:37:14;;;;;;;12.77;10.40;;;11.60;92.40;;;;;;5009342;28;20471;-73
2023/04/17 10:39:56;;;;;;;9.97;8.90;;;11.60;92.40;;;;;;5012352;28;20504;-73
2023/04/17 10:42:26;;;;;;;11.60;9.50;;;11.60;92.30;;;;;;5024364;28;20498;-72
2023/04/17 10:44:59;;;;;;;11.53;8.60;;;11.60;92.50;;;;;;5025578;28;20501;-72
2023/04/17 10:47:33;;;;;;;10.63;8.80;;;11.60;92.50;;;;;;5025023;28;20444;-73
2023/04/17 10:50:07;;;;;;;10.13;9.10;;;11.60;92.40;;;;;;5011973;28;20494;-72
2023/04/17 10:52:38;;;;;;;11.37;9.83;;;11.60;92.30;;;;;;5024241;28;20477;-73
2023/04/17 10:55:09;;;;;;;9.97;8.87;;;11.60;92.40;;;;;;5016196;28;20497;-73
2023/04/17 10:57:59;;;;;;;10.00;8.90;;;11.60;92.40;;;;;;5001288;28;20447;-73
2023/04/17 11:00:31;;;;;;;10.00;9.00;;;11.60;92.30;;;;;;5024090;28;21705;-72
2023/04/17 11:03:01;;;;;;;10.40;9.30;;;11.60;92.40;;;;;;5027276;28;20535;-73
2023/04/17 11:05:32;;;;;;;9.90;8.90;;;11.60;92.30;;;;;;5020633;28;20480;-73
2023/04/17 11:08:00;;;;;;;9.50;8.50;;;11.60;92.30;;;;;;5019989;28;20432;-73
2023/04/17 11:10:29;;;;;;;9.77;8.77;;;11.60;92.30;;;;;;5021893;28;20470;-73
2023/04/17 11:12:57;;;;;;;10.63;9.20;;;11.60;92.40;;;;;;5009808;28;20451;-73
2023/04/17 11:15:27;;;;;;;10.00;8.90;;;11.60;92.40;;;;;;5010447;28;20482;-72
2023/04/17 11:17:57;;;;;;;11.07;9.50;;;11.60;92.30;;;;;;5002703;28;20459;-72
2023/04/17 11:20:28;;;;;;;10.73;9.53;;;11.60;92.30;;;;;;5009564;28;20471;-73
2023/04/17 11:23:01;;;;;;;9.50;8.57;;;11.60;92.30;;;;;;5026021;28;20443;-73
2023/04/17 11:25:32;;;;;;;10.40;9.30;;;11.60;92.30;;;;;;5024289;28;20475;-74
2023/04/17 11:28:03;;;;;;;9.30;8.40;;;11.70;92.30;;;;;;5024482;28;20470;-73
2023/04/17 11:30:33;;;;;;;9.50;8.60;;;11.60;92.30;;;;;;5024854;28;20478;-74
2023/04/17 11:33:04;;;;;;;11.00;9.37;;;11.60;92.30;;;;;;5006004;28;20526;-72
2023/04/17 11:35:33;;;;;;;9.97;8.37;;;11.70;92.30;;;;;;5008012;28;20858;-73
2023/04/17 11:38:12;;;;;;;9.63;8.67;;;11.70;92.30;;;;;;5008256;28;20423;-73
2023/04/17 11:40:45;;;;;;;8.90;8.00;;;11.70;92.30;;;;;;5024699;28;20502;-72
2023/04/17 11:43:13;;;;;;;9.80;8.53;;;11.70;92.30;;;;;;5024623;28;20446;-73
2023/04/17 11:45:43;;;;;;;10.13;9.03;;;11.70;92.30;;;;;;5024387;28;21083;-72
2023/04/17 11:48:13;;;;;;;9.77;8.80;;;11.70;92.30;;;;;;5024864;28;20853;-73
2023/04/17 11:50:43;;;;;;;8.80;7.90;;;11.70;92.20;;;;;;5007279;28;20565;-74
2023/04/17 11:53:17;;;;;;;9.63;8.67;;;11.70;92.30;;;;;;5030400;28;20457;-73
2023/04/17 11:55:47;;;;;;;10.03;8.93;;;11.70;92.30;;;;;;5007224;28;20476;-71
2023/04/17 11:58:16;;;;;;;10.83;9.23;;;11.70;92.40;;;;;;5025207;28;20454;-73
2023/04/17 12:00:44;;;;;;;10.03;9.03;;;11.70;92.30;;;;;;5026633;28;20592;-73
2023/04/17 12:03:33;;;;;;;9.30;8.33;;;11.70;92.30;;;;;;5021331;28;20444;-73
2023/04/17 12:06:05;;;;;;;9.33;8.43;;;11.70;92.30;;;;;;5007810;28;20513;-74
2023/04/17 12:08:48;;;;;;;9.83;8.83;;;11.70;92.30;;;;;;5011752;28;20901;-73
2023/04/17 12:11:24;;;;;;;10.03;7.60;;;11.70;92.30;;;;;;5026502;28;20539;-73
2023/04/17 12:13:54;;;;;;;9.23;8.30;;;11.70;92.30;;;;;;5023190;28;20678;-73
2023/04/17 12:16:24;;;;;;;10.37;8.10;;;11.70;92.30;;;;;;5016854;28;20465;-73
2023/04/17 12:18:53;;;;;;;10.00;9.10;;;11.70;92.30;;;;;;5014846;28;20466;-74
2023/04/17 12:21:22;;;;;;;8.30;7.60;;;11.70;92.30;;;;;;5014778;28;20473;-74
2023/04/17 12:23:53;;;;;;;9.40;8.33;;;11.80;92.30;;;;;;4999544;28;20952;-73
2023/04/17 12:26:23;;;;;;;10.70;9.47;;;11.80;92.30;;;;;;5002912;28;20579;-73
2023/04/17 12:28:52;;;;;;;9.23;8.30;;;11.70;92.30;;;;;;4991545;28;20825;-73
2023/04/17 12:31:20;;;;;;;7.87;7.10;;;11.70;92.30;;;;;;5007541;28;20903;-73
2023/04/17 12:33:50;;;;;;;10.27;7.83;;;11.80;92.30;;;;;;5011878;28;20974;-73
2023/04/17 12:36:19;;;;;;;8.80;7.70;;;11.80;92.30;;;;;;5010865;28;20547;-73
2023/04/17 12:38:47;;;;;;;9.20;8.20;;;11.80;92.40;;;;;;5004652;28;20543;-73
2023/04/17 12:41:17;;;;;;;9.23;8.27;;;11.80;92.30;;;;;;5022469;28;20497;-72
2023/04/17 12:43:46;;;;;;;8.30;7.50;;;11.80;92.20;;;;;;5005983;28;20896;-72
2023/04/17 12:46:14;;;;;;;9.23;7.87;;;11.80;92.20;;;;;;5020299;28;21031;-73
2023/04/17 12:48:43;;;;;;;9.13;8.17;;;11.80;92.20;;;;;;5006788;28;20458;-72
2023/04/17 12:51:11;;;;;;;9.63;8.63;;;11.80;92.20;;;;;;5000960;28;20472;-73
2023/04/17 12:53:40;;;;;;;9.37;7.73;;;11.80;92.10;;;;;;5018425;28;20447;-74
2023/04/17 12:56:08;;;;;;;8.30;7.50;;;11.80;92.10;;;;;;4998418;28;20491;-73
2023/04/17 12:58:38;;;;;;;7.73;7.03;;;11.80;92.10;;;;;;5007550;28;20455;-73
2023/04/17 13:01:07;;;;;;;9.20;8.10;;;11.80;92.10;;;;;;5023422;28;20475;-73